Time;durP1;ratioP1;P1;durP2;ratioP2;P2;SDS_P1;SDS_P2;PMS_P1;PMS_P2;Temp;Humidity;BMP_temperature;BMP_pressure;BME280_temperature;BME280_humidity;BME280_pressure;Samples;Min_cycle;Max_cycle;Signal;HPM_P1;HPM_P2
2022/08/02 00:01:17;;;;;;;2.45;1.80;;;;;;;;;;6307075;28;20048;-74
2022/08/02 00:04:18;;;;;;;1.40;1.20;;;;;;;;;;6308877;28;20056;-74
2022/08/02 00:07:20;;;;;;;1.70;1.08;;;;;;;;;;6309361;28;20052;-73
2022/08/02 00:10:23;;;;;;;1.50;1.10;;;;;;;;;;6308703;28;20330;-74
2022/08/02 00:13:25;;;;;;;2.13;1.30;;;;;;;;;;6308888;28;20417;-74
2022/08/02 00:16:26;;;;;;;1.63;1.20;;;;;;;;;;6309143;28;20343;-74
2022/08/02 00:19:28;;;;;;;1.42;1.15;;;;;;;;;;6310792;28;20094;-73
2022/08/02 00:22:30;;;;;;;1.60;1.23;;;;;;;;;;6306863;28;20331;-72
2022/08/02 00:25:33;;;;;;;1.63;0.98;;;;;;;;;;6308449;28;20045;-73
2022/08/02 00:28:34;;;;;;;3.85;1.30;;;;;;;;;;6309253;28;20044;-73
2022/08/02 00:31:36;;;;;;;1.80;1.40;;;;;;;;;;6307112;28;20060;-73
2022/08/02 00:34:38;;;;;;;1.90;1.35;;;;;;;;;;6306720;28;20053;-73
2022/08/02 00:37:40;;;;;;;2.00;1.20;;;;;;;;;;6307461;28;20114;-72
2022/08/02 00:40:58;;;;;;;2.03;1.13;;;;;;;;;;6305087;28;20056;-70
2022/08/02 00:43:59;;;;;;;4.63;1.80;;;;;;;;;;6301409;28;20063;-71
2022/08/02 00:47:01;;;;;;;2.45;1.48;;;;;;;;;;6312615;28;20086;-69
2022/08/02 00:50:04;;;;;;;2.65;1.40;;;;;;;;;;6309223;28;20056;-71
2022/08/02 00:53:07;;;;;;;6.07;1.77;;;;;;;;;;6305141;28;20098;-71
2022/08/02 00:56:10;;;;;;;3.22;1.70;;;;;;;;;;6308205;28;20347;-70
2022/08/02 00:59:12;;;;;;;5.80;2.08;;;;;;;;;;6306570;28;20060;-70
2022/08/02 01:02:14;;;;;;;2.60;1.70;;;;;;;;;;6308780;28;20056;-71
2022/08/02 01:05:16;;;;;;;2.47;1.30;;;;;;;;;;6308427;28;20121;-73
2022/08/02 01:08:17;;;;;;;1.70;1.30;;;;;;;;;;6307108;28;20060;-72
2022/08/02 01:11:20;;;;;;;3.88;1.20;;;;;;;;;;6307806;28;20335;-70
2022/08/02 01:14:24;;;;;;;2.05;1.35;;;;;;;;;;6304661;28;20335;-71
2022/08/02 01:17:30;;;;;;;2.50;1.25;;;;;;;;;;6311405;28;20059;-70
2022/08/02 01:20:45;;;;;;;2.60;1.30;;;;;;;;;;6309207;28;20036;-74
2022/08/02 01:24:19;;;;;;;3.50;1.17;;;;;;;;;;6306742;28;20239;-73
2022/08/02 01:27:32;;;;;;;2.45;1.20;;;;;;;;;;6212392;28;20337;-70
2022/08/02 01:30:36;;;;;;;1.63;1.20;;;;;;;;;;6228402;28;20046;-69
2022/08/02 01:33:42;;;;;;;2.80;1.33;;;;;;;;;;6229176;28;20092;-71
2022/08/02 01:36:47;;;;;;;2.78;1.40;;;;;;;;;;6228885;28;20057;-70
2022/08/02 01:39:52;;;;;;;3.17;1.50;;;;;;;;;;6231919;28;20245;-69
2022/08/02 01:42:56;;;;;;;6.35;1.75;;;;;;;;;;6229763;28;20312;-71
2022/08/02 01:46:06;;;;;;;2.20;1.50;;;;;;;;;;6229811;28;20285;-73
2022/08/02 01:49:12;;;;;;;1.85;1.40;;;;;;;;;;6232150;28;20141;-71
2022/08/02 01:52:24;;;;;;;2.88;1.58;;;;;;;;;;6228660;28;20057;-72
2022/08/02 01:55:29;;;;;;;1.83;1.60;;;;;;;;;;6230066;28;20137;-72
2022/08/02 01:58:34;;;;;;;3.38;1.67;;;;;;;;;;6227286;28;20391;-70
2022/08/02 02:01:38;;;;;;;2.35;1.60;;;;;;;;;;6241427;28;20044;-70
2022/08/02 02:04:40;;;;;;;2.10;1.65;;;;;;;;;;6311421;28;20052;-70
2022/08/02 02:07:44;;;;;;;3.88;2.40;;;;;;;;;;6308283;28;20052;-73
2022/08/02 02:10:46;;;;;;;6.43;1.98;;;;;;;;;;6304588;28;20094;-71
2022/08/02 02:13:49;;;;;;;3.28;1.90;;;;;;;;;;6306323;28;20231;-71
2022/08/02 02:16:52;;;;;;;;;;;;;;;;;;6309939;28;20105;-69
2022/08/02 02:19:55;;;;;;;3.20;1.85;;;;;;;;;;6308898;28;19924;-69
2022/08/02 02:22:58;;;;;;;5.45;1.58;;;;;;;;;;6304750;28;20059;-70
2022/08/02 02:25:59;;;;;;;;;;;;;;;;;;6306374;28;20056;-69
2022/08/02 02:29:02;;;;;;;2.63;1.63;;;;;;;;;;6305843;28;19987;-68
2022/08/02 02:32:06;;;;;;;1.80;1.58;;;;;;;;;;6304285;28;20063;-69
2022/08/02 02:35:09;;;;;;;4.55;2.00;;;;;;;;;;6304672;28;20140;-69
2022/08/02 02:38:13;;;;;;;3.20;2.00;;;;;;;;;;6305758;28;20560;-71
2022/08/02 02:41:16;;;;;;;3.58;1.75;;;;;;;;;;6305113;28;20487;-69
2022/08/02 02:44:19;;;;;;;5.68;1.80;;;;;;;;;;6303069;28;20060;-72
2022/08/02 02:47:23;;;;;;;2.67;1.63;;;;;;;;;;6299452;28;20048;-69
2022/08/02 02:50:25;;;;;;;3.20;2.05;;;;;;;;;;6308952;28;20273;-72
2022/08/02 02:53:28;;;;;;;1.80;1.60;;;;;;;;;;6310116;28;20045;-69
2022/08/02 02:56:30;;;;;;;3.28;2.13;;;;;;;;;;6305765;28;20594;-68
2022/08/02 02:59:32;;;;;;;3.75;1.90;;;;;;;;;;6303388;28;20056;-69
2022/08/02 03:02:38;;;;;;;2.70;2.13;;;;;;;;;;6303727;28;20262;-74
2022/08/02 03:05:39;;;;;;;4.53;1.90;;;;;;;;;;6304244;28;20275;-69
2022/08/02 03:08:41;;;;;;;2.88;1.92;;;;;;;;;;6309264;28;20049;-69
2022/08/02 03:11:43;;;;;;;7.05;2.20;;;;;;;;;;6303566;28;20266;-70
2022/08/02 03:14:44;;;;;;;3.63;1.80;;;;;;;;;;6303420;28;20052;-74
2022/08/02 03:17:47;;;;;;;5.57;2.13;;;;;;;;;;6303327;28;20110;-74
2022/08/02 03:20:50;;;;;;;;;;;;;;;;;;6303868;28;20048;-70
2022/08/02 03:23:51;;;;;;;2.00;1.70;;;;;;;;;;6302637;28;20258;-70
2022/08/02 03:26:53;;;;;;;3.38;1.90;;;;;;;;;;6302022;28;20098;-70
2022/08/02 03:29:55;;;;;;;2.33;1.83;;;;;;;;;;6302679;28;20209;-70
2022/08/02 03:32:58;;;;;;;4.38;2.55;;;;;;;;;;6302437;28;20053;-70
2022/08/02 03:36:02;;;;;;;5.75;2.10;;;;;;;;;;6303150;28;20063;-70
2022/08/02 03:39:04;;;;;;;7.10;2.45;;;;;;;;;;6303157;28;20331;-71
2022/08/02 03:42:07;;;;;;;3.47;2.08;;;;;;;;;;6304382;28;20055;-69
2022/08/02 03:45:10;;;;;;;4.77;1.90;;;;;;;;;;6301195;28;20055;-70
2022/08/02 03:48:14;;;;;;;2.28;2.08;;;;;;;;;;6298751;28;20057;-73
2022/08/02 03:51:17;;;;;;;4.68;2.22;;;;;;;;;;6300600;28;20052;-74
2022/08/02 03:54:18;;;;;;;5.50;2.10;;;;;;;;;;6301374;28;20051;-73
2022/08/02 03:57:20;;;;;;;7.00;2.42;;;;;;;;;;6305307;28;20052;-70
2022/08/02 04:00:23;;;;;;;5.32;2.60;;;;;;;;;;6300344;28;20190;-70
2022/08/02 04:03:26;;;;;;;4.72;2.40;;;;;;;;;;6303770;28;20059;-70
2022/08/02 04:06:28;;;;;;;10.88;2.92;;;;;;;;;;6301572;28;20121;-70
2022/08/02 04:09:30;;;;;;;3.15;2.25;;;;;;;;;;6304798;28;20044;-69
2022/08/02 04:12:31;;;;;;;6.72;2.78;;;;;;;;;;6303046;28;20060;-70
2022/08/02 04:15:33;;;;;;;6.18;2.90;;;;;;;;;;6303998;28;20319;-71
2022/08/02 04:18:40;;;;;;;9.80;3.20;;;;;;;;;;6301888;28;20115;-72
2022/08/02 04:21:45;;;;;;;5.43;3.10;;;;;;;;;;6301497;28;20086;-70
2022/08/02 04:24:50;;;;;;;5.00;3.72;;;;;;;;;;6302451;28;20052;-70
2022/08/02 04:27:52;;;;;;;7.65;4.20;;;;;;;;;;6303686;28;20051;-68
2022/08/02 04:30:54;;;;;;;8.55;4.03;;;;;;;;;;6306396;28;20105;-70
2022/08/02 04:33:58;;;;;;;8.02;4.80;;;;;;;;;;6306054;28;20052;-69
2022/08/02 04:37:00;;;;;;;5.38;4.20;;;;;;;;;;6306352;28;20052;-69
2022/08/02 04:40:01;;;;;;;7.10;4.90;;;;;;;;;;6307658;28;20106;-68
2022/08/02 04:43:03;;;;;;;7.93;4.63;;;;;;;;;;6306778;28;20044;-70
2022/08/02 04:46:05;;;;;;;4.90;4.38;;;;;;;;;;6305798;28;20251;-71
2022/08/02 04:49:08;;;;;;;8.55;4.47;;;;;;;;;;6305693;28;20282;-69
2022/08/02 04:52:09;;;;;;;;;;;;;;;;;;6304402;28;20068;-70
2022/08/02 04:55:11;;;;;;;7.55;3.88;;;;;;;;;;6308733;28;19916;-67
2022/08/02 04:58:13;;;;;;;8.45;4.93;;;;;;;;;;6308347;28;20282;-67
2022/08/02 05:01:15;;;;;;;8.23;4.50;;;;;;;;;;6306868;28;20052;-68
2022/08/02 05:04:44;;;;;;;10.90;4.70;;;;;;;;;;6305872;28;20287;-67
2022/08/02 05:07:47;;;;;;;6.68;4.75;;;;;;;;;;6259546;28;20052;-68
2022/08/02 05:10:48;;;;;;;5.75;4.10;;;;;;;;;;6308781;28;20055;-69
2022/08/02 05:13:50;;;;;;;8.00;4.80;;;;;;;;;;6307921;28;20304;-67
2022/08/02 05:16:52;;;;;;;10.45;5.25;;;;;;;;;;6304334;28;20345;-67
2022/08/02 05:19:55;;;;;;;11.50;4.90;;;;;;;;;;6304746;28;20044;-67
2022/08/02 05:22:56;;;;;;;6.85;5.43;;;;;;;;;;6305253;28;20052;-66
2022/08/02 05:25:58;;;;;;;10.75;5.22;;;;;;;;;;6302540;28;20312;-67
2022/08/02 05:29:00;;;;;;;7.15;5.53;;;;;;;;;;6301258;28;20144;-69
2022/08/02 05:32:01;;;;;;;9.18;5.30;;;;;;;;;;6302625;28;20044;-68
2022/08/02 05:35:06;;;;;;;11.55;5.82;;;;;;;;;;6307981;28;20044;-74
2022/08/02 05:38:07;;;;;;;7.78;5.30;;;;;;;;;;6301497;28;20244;-68
2022/08/02 05:41:09;;;;;;;8.82;5.68;;;;;;;;;;6303596;28;20051;-68
2022/08/02 05:44:13;;;;;;;15.90;5.57;;;;;;;;;;6304836;28;20045;-68
2022/08/02 05:47:15;;;;;;;9.43;4.53;;;;;;;;;;6306776;28;20086;-69
2022/08/02 05:50:18;;;;;;;17.33;4.90;;;;;;;;;;6302351;28;20052;-68
2022/08/02 05:53:29;;;;;;;5.95;3.22;;;;;;;;;;6306806;28;20055;-69
2022/08/02 05:56:34;;;;;;;8.35;3.50;;;;;;;;;;6306268;28;20044;-69
2022/08/02 05:59:48;;;;;;;5.57;3.67;;;;;;;;;;6304042;28;20077;-77
2022/08/02 06:03:02;;;;;;;7.53;2.80;;;;;;;;;;6302395;28;20331;-74
2022/08/02 06:06:10;;;;;;;5.38;2.13;;;;;;;;;;6306894;28;20688;-68
2022/08/02 06:09:15;;;;;;;3.03;2.33;;;;;;;;;;6306358;28;20503;-68
2022/08/02 06:12:17;;;;;;;3.08;2.08;;;;;;;;;;6304844;28;20064;-76
2022/08/02 06:15:20;;;;;;;16.75;2.95;;;;;;;;;;6304848;28;20048;-74
2022/08/02 06:18:22;;;;;;;3.30;1.75;;;;;;;;;;6304129;28;20122;-75
2022/08/02 06:21:25;;;;;;;3.75;1.50;;;;;;;;;;6303960;28;20048;-72
2022/08/02 06:24:27;;;;;;;2.83;1.65;;;;;;;;;;6303814;28;20137;-72
2022/08/02 06:27:30;;;;;;;6.10;1.40;;;;;;;;;;6303326;28;20515;-71
2022/08/02 06:30:32;;;;;;;4.75;1.50;;;;;;;;;;6305082;28;20052;-71
2022/08/02 06:33:34;;;;;;;4.78;1.48;;;;;;;;;;6305277;28;20344;-71
2022/08/02 06:36:41;;;;;;;5.43;1.35;;;;;;;;;;6305688;28;20108;-70
2022/08/02 06:39:45;;;;;;;4.20;1.63;;;;;;;;;;6305651;28;20060;-75
2022/08/02 06:42:51;;;;;;;1.88;1.10;;;;;;;;;;6306575;28;20047;-72
2022/08/02 06:45:53;;;;;;;3.85;1.10;;;;;;;;;;6304402;28;20049;-73
2022/08/02 06:48:55;;;;;;;3.45;1.20;;;;;;;;;;6306040;28;20048;-73
2022/08/02 06:51:58;;;;;;;5.60;0.95;;;;;;;;;;6303184;28;20070;-75
2022/08/02 06:55:01;;;;;;;7.03;1.23;;;;;;;;;;6303567;28;20063;-76
2022/08/02 06:58:02;;;;;;;2.88;1.02;;;;;;;;;;6308591;28;21954;-73
2022/08/02 07:01:06;;;;;;;10.50;1.30;;;;;;;;;;6302853;28;20644;-74
2022/08/02 07:04:07;;;;;;;;;;;;;;;;;;6306496;28;20094;-71
2022/08/02 07:07:10;;;;;;;4.75;1.00;;;;;;;;;;6303604;28;20028;-74
2022/08/02 07:10:13;;;;;;;4.10;1.10;;;;;;;;;;6303983;28;20056;-77
2022/08/02 07:13:38;;;;;;;3.03;0.88;;;;;;;;;;6305063;28;20041;-72
2022/08/02 07:16:40;;;;;;;3.72;1.10;;;;;;;;;;6295994;28;20044;-72
2022/08/02 07:19:41;;;;;;;5.38;1.10;;;;;;;;;;6303449;28;20071;-70
2022/08/02 07:22:44;;;;;;;2.42;1.00;;;;;;;;;;6303564;28;20263;-71
2022/08/02 07:25:47;;;;;;;5.13;1.02;;;;;;;;;;6302156;28;20048;-74
2022/08/02 07:28:48;;;;;;;4.60;1.27;;;;;;;;;;6303111;28;20111;-72
2022/08/02 07:31:50;;;;;;;2.42;1.10;;;;;;;;;;6302860;28;20055;-73
2022/08/02 07:34:53;;;;;;;2.15;0.90;;;;;;;;;;6304250;28;20060;-71
2022/08/02 07:37:56;;;;;;;2.42;1.13;;;;;;;;;;6303070;28;20052;-72
2022/08/02 07:40:57;;;;;;;3.85;1.73;;;;;;;;;;6303934;28;20380;-71
2022/08/02 07:43:59;;;;;;;5.70;1.10;;;;;;;;;;6303556;28;20067;-73
2022/08/02 07:47:01;;;;;;;2.58;1.27;;;;;;;;;;6304453;28;20270;-71
2022/08/02 07:50:02;;;;;;;3.58;1.20;;;;;;;;;;6301922;28;20123;-71
2022/08/02 07:53:05;;;;;;;4.18;1.23;;;;;;;;;;6305406;28;20059;-73
2022/08/02 07:56:07;;;;;;;;;;;;;;;;;;6306465;28;20059;-72
2022/08/02 07:59:09;;;;;;;3.72;1.05;;;;;;;;;;6302328;28;19978;-77
2022/08/02 08:02:10;;;;;;;3.25;1.63;;;;;;;;;;6304411;28;20388;-77
2022/08/02 08:05:12;;;;;;;7.03;1.23;;;;;;;;;;6309108;28;20057;-72
2022/08/02 08:08:15;;;;;;;3.65;1.60;;;;;;;;;;6314356;28;20044;-75
2022/08/02 08:11:17;;;;;;;4.38;1.42;;;;;;;;;;6309536;28;20056;-71
2022/08/02 08:14:19;;;;;;;2.53;1.23;;;;;;;;;;6308865;28;20276;-75
2022/08/02 08:17:20;;;;;;;4.38;1.10;;;;;;;;;;6310091;28;20060;-72
2022/08/02 08:20:22;;;;;;;3.78;1.00;;;;;;;;;;6308469;28;20074;-71
2022/08/02 08:23:25;;;;;;;6.38;1.20;;;;;;;;;;6310355;28;20273;-73
2022/08/02 08:26:27;;;;;;;3.72;1.45;;;;;;;;;;6309318;28;20102;-72
2022/08/02 08:29:28;;;;;;;2.60;0.98;;;;;;;;;;6308352;28;20110;-72
2022/08/02 08:32:30;;;;;;;2.50;1.30;;;;;;;;;;6310428;28;20048;-72
2022/08/02 08:35:31;;;;;;;6.72;1.20;;;;;;;;;;6306470;28;20105;-72
2022/08/02 08:38:35;;;;;;;4.28;1.48;;;;;;;;;;6308612;28;20048;-78
2022/08/02 08:41:37;;;;;;;2.47;1.17;;;;;;;;;;6309646;28;20052;-72
2022/08/02 08:44:38;;;;;;;4.40;1.10;;;;;;;;;;6306515;28;20378;-72
2022/08/02 08:47:41;;;;;;;3.15;1.30;;;;;;;;;;6308406;28;20086;-71
2022/08/02 08:50:46;;;;;;;3.25;1.00;;;;;;;;;;6308340;28;20052;-73
2022/08/02 08:53:49;;;;;;;6.72;1.25;;;;;;;;;;6309447;28;20094;-72
2022/08/02 08:56:52;;;;;;;6.43;1.25;;;;;;;;;;6312023;28;20040;-72
2022/08/02 08:59:54;;;;;;;1.20;1.10;;;;;;;;;;6309345;28;20109;-72
2022/08/02 09:02:56;;;;;;;1.73;1.10;;;;;;;;;;6306595;28;20045;-72
2022/08/02 09:05:58;;;;;;;5.13;1.17;;;;;;;;;;6305268;28;20045;-71
2022/08/02 09:09:01;;;;;;;4.28;1.00;;;;;;;;;;6310375;28;20056;-73
2022/08/02 09:12:13;;;;;;;3.92;1.27;;;;;;;;;;6304926;28;20045;-71
2022/08/02 09:15:24;;;;;;;2.63;1.35;;;;;;;;;;6306477;28;20040;-71
2022/08/02 09:18:30;;;;;;;7.30;1.48;;;;;;;;;;6310065;28;20048;-71
2022/08/02 09:21:36;;;;;;;2.55;1.17;;;;;;;;;;6306140;28;20053;-72
2022/08/02 09:24:44;;;;;;;3.70;1.20;;;;;;;;;;6307629;28;20044;-72
2022/08/02 09:27:48;;;;;;;5.55;1.50;;;;;;;;;;6304181;28;20737;-73
2022/08/02 09:30:49;;;;;;;5.00;1.30;;;;;;;;;;6306249;28;20051;-73
2022/08/02 09:33:54;;;;;;;4.60;1.40;;;;;;;;;;6307105;28;20052;-74
2022/08/02 09:36:55;;;;;;;1.67;1.20;;;;;;;;;;6306276;28;20673;-70
2022/08/02 09:39:59;;;;;;;4.22;1.98;;;;;;;;;;6309432;28;20048;-72
2022/08/02 09:43:01;;;;;;;2.35;1.30;;;;;;;;;;6305771;28;20044;-72
2022/08/02 09:46:13;;;;;;;5.65;1.40;;;;;;;;;;6306639;28;20048;-72
2022/08/02 09:49:16;;;;;;;8.45;1.23;;;;;;;;;;6308132;28;20052;-72
2022/08/02 09:52:22;;;;;;;5.57;1.70;;;;;;;;;;6303528;28;20044;-74
2022/08/02 09:55:26;;;;;;;5.45;1.85;;;;;;;;;;6307252;28;20315;-73
2022/08/02 09:58:27;;;;;;;2.63;1.33;;;;;;;;;;6308717;28;20056;-73
2022/08/02 10:01:31;;;;;;;4.43;1.50;;;;;;;;;;6306920;28;20429;-79
2022/08/02 10:04:33;;;;;;;2.78;1.10;;;;;;;;;;6307344;28;20053;-73
2022/08/02 10:07:35;;;;;;;1.73;1.25;;;;;;;;;;6310870;28;20048;-74
2022/08/02 10:10:37;;;;;;;;;;;;;;;;;;6305689;28;20056;-73
2022/08/02 10:13:39;;;;;;;2.40;1.30;;;;;;;;;;6303613;28;19924;-72
2022/08/02 10:16:42;;;;;;;4.20;1.42;;;;;;;;;;6307663;28;20064;-72
2022/08/02 10:19:47;;;;;;;4.82;1.40;;;;;;;;;;6305917;28;20056;-73
2022/08/02 10:22:48;;;;;;;3.38;1.13;;;;;;;;;;6303798;28;20104;-68
2022/08/02 10:25:52;;;;;;;;;;;;;;;;;;6305345;28;20321;-70
2022/08/02 10:28:54;;;;;;;5.78;1.40;;;;;;;;;;6303958;28;19924;-73
2022/08/02 10:31:58;;;;;;;5.00;1.83;;;;;;;;;;6305269;28;20115;-73
2022/08/02 10:35:04;;;;;;;2.35;1.27;;;;;;;;;;6305777;28;20385;-71
2022/08/02 10:38:09;;;;;;;4.15;1.30;;;;;;;;;;6303730;28;20336;-71
2022/08/02 10:41:12;;;;;;;6.13;1.40;;;;;;;;;;6307835;28;20090;-70
2022/08/02 10:44:30;;;;;;;2.55;1.30;;;;;;;;;;6304250;28;20082;-70
2022/08/02 10:47:31;;;;;;;2.30;1.38;;;;;;;;;;6303708;28;20074;-72
2022/08/02 10:50:57;;;;;;;4.03;1.23;;;;;;;;;;6302607;28;20063;-70
2022/08/02 10:54:08;;;;;;;2.78;1.20;;;;;;;;;;6288185;28;20056;-75
2022/08/02 10:57:20;;;;;;;2.00;1.40;;;;;;;;;;6307737;28;20052;-73
2022/08/02 11:00:26;;;;;;;4.25;1.00;;;;;;;;;;6305352;28;20056;-69
2022/08/02 11:03:39;;;;;;;1.63;1.20;;;;;;;;;;6305595;28;20056;-72
2022/08/02 11:07:09;;;;;;;1.33;1.00;;;;;;;;;;6302502;28;20058;-71
2022/08/02 11:10:31;;;;;;;2.75;1.20;;;;;;;;;;6301959;28;20044;-72
2022/08/02 11:14:00;;;;;;;3.03;1.33;;;;;;;;;;6302498;28;20051;-72
2022/08/02 11:17:15;;;;;;;1.98;1.30;;;;;;;;;;6306430;28;20052;-75
2022/08/02 11:20:17;;;;;;;3.45;1.50;;;;;;;;;;6302861;28;20056;-71
2022/08/02 11:23:36;;;;;;;1.88;1.20;;;;;;;;;;6305351;28;20059;-71
2022/08/02 11:26:46;;;;;;;1.45;0.95;;;;;;;;;;6302548;28;20056;-70
2022/08/02 11:29:49;;;;;;;4.05;1.30;;;;;;;;;;6302772;28;20051;-71
2022/08/02 11:32:52;;;;;;;6.32;1.45;;;;;;;;;;6302648;28;20040;-71
2022/08/02 11:36:01;;;;;;;1.40;1.08;;;;;;;;;;6303886;28;20048;-71
2022/08/02 11:39:10;;;;;;;1.33;1.02;;;;;;;;;;6302783;28;20045;-72
2022/08/02 11:42:11;;;;;;;1.95;1.10;;;;;;;;;;6305192;28;20354;-71
2022/08/02 11:45:15;;;;;;;1.48;1.15;;;;;;;;;;6305316;28;20052;-71
2022/08/02 11:48:33;;;;;;;3.30;1.08;;;;;;;;;;6301574;28;20166;-73
2022/08/02 11:51:35;;;;;;;4.25;1.08;;;;;;;;;;6306823;28;20098;-72
2022/08/02 11:54:39;;;;;;;2.65;1.48;;;;;;;;;;6303945;28;20061;-73
2022/08/02 11:57:41;;;;;;;1.33;1.10;;;;;;;;;;6306445;28;20094;-75
2022/08/02 12:00:45;;;;;;;64.75;58.25;;;;;;;;;;6303829;28;20128;-74
2022/08/02 12:03:50;;;;;;;4.35;3.17;;;;;;;;;;6305687;28;20055;-73
2022/08/02 12:06:56;;;;;;;9.20;4.95;;;;;;;;;;6306238;28;20320;-74
2022/08/02 12:09:59;;;;;;;2.85;1.27;;;;;;;;;;6304501;28;20055;-72
2022/08/02 12:13:01;;;;;;;8.40;5.18;;;;;;;;;;6304102;28;20048;-74
2022/08/02 12:19:26;;;;;;;2.88;1.30;;;;;;;;;;6305440;28;20072;-74
2022/08/02 12:22:28;;;;;;;4.43;3.03;;;;;;;;;;6304642;28;20044;-73
2022/08/02 12:25:30;;;;;;;3.40;1.98;;;;;;;;;;6303659;28;20068;-71
2022/08/02 12:28:34;;;;;;;2.38;1.48;;;;;;;;;;6305611;28;20045;-73
2022/08/02 12:31:43;;;;;;;2.67;1.20;;;;;;;;;;6304164;28;20056;-72
2022/08/02 12:35:00;;;;;;;3.58;1.20;;;;;;;;;;6305168;28;20052;-74
2022/08/02 12:38:09;;;;;;;4.70;3.10;;;;;;;;;;6303980;28;20052;-72
2022/08/02 12:41:13;;;;;;;3.63;1.30;;;;;;;;;;6302388;28;20319;-73
2022/08/02 12:44:16;;;;;;;1.85;1.20;;;;;;;;;;6303386;28;20102;-72
2022/08/02 12:47:20;;;;;;;2.83;1.20;;;;;;;;;;6307422;28;20049;-70
2022/08/02 12:50:25;;;;;;;3.40;1.20;;;;;;;;;;6306012;28;20063;-71
2022/08/02 12:53:32;;;;;;;4.18;1.70;;;;;;;;;;6310548;28;20040;-70
2022/08/02 12:56:37;;;;;;;1.55;1.20;;;;;;;;;;6310207;28;20083;-70
2022/08/02 12:59:40;;;;;;;2.25;1.40;;;;;;;;;;6307286;28;20048;-70
2022/08/02 13:02:43;;;;;;;3.25;1.20;;;;;;;;;;6311140;28;20048;-70
2022/08/02 13:05:45;;;;;;;3.97;1.40;;;;;;;;;;6307806;28;20044;-70
2022/08/02 13:08:47;;;;;;;2.72;1.30;;;;;;;;;;6317135;28;20117;-69
2022/08/02 13:11:49;;;;;;;3.42;1.30;;;;;;;;;;6311283;28;20052;-71
2022/08/02 13:14:50;;;;;;;2.92;1.30;;;;;;;;;;6315047;28;20052;-69
2022/08/02 13:17:53;;;;;;;4.07;1.50;;;;;;;;;;6315764;28;20067;-69
2022/08/02 13:20:55;;;;;;;3.03;1.40;;;;;;;;;;6314453;28;20327;-70
2022/08/02 13:23:57;;;;;;;3.10;1.80;;;;;;;;;;6316386;28;20048;-69
2022/08/02 13:26:58;;;;;;;3.30;1.40;;;;;;;;;;6318518;28;20161;-70
2022/08/02 13:30:01;;;;;;;1.50;1.40;;;;;;;;;;6317858;28;20075;-69
2022/08/02 13:33:04;;;;;;;1.88;1.40;;;;;;;;;;6312899;28;20044;-69
2022/08/02 13:36:06;;;;;;;5.15;1.63;;;;;;;;;;6316253;28;20216;-70
2022/08/02 13:39:09;;;;;;;3.20;1.40;;;;;;;;;;6316656;28;20048;-69
2022/08/02 13:42:10;;;;;;;2.20;1.50;;;;;;;;;;6315961;28;20082;-69
2022/08/02 13:45:12;;;;;;;2.03;1.30;;;;;;;;;;6313791;28;20244;-68
2022/08/02 13:48:15;;;;;;;1.83;1.40;;;;;;;;;;6315240;28;20228;-69
2022/08/02 13:51:17;;;;;;;2.60;1.48;;;;;;;;;;6311416;28;20262;-69
2022/08/02 13:54:18;;;;;;;3.70;1.40;;;;;;;;;;6313866;28;20055;-69
2022/08/02 13:57:20;;;;;;;1.83;1.33;;;;;;;;;;6313124;28;20222;-69
2022/08/02 14:00:22;;;;;;;3.30;1.75;;;;;;;;;;6315668;28;20057;-68
2022/08/02 14:03:25;;;;;;;3.72;1.50;;;;;;;;;;6312565;28;20044;-69
2022/08/02 14:06:26;;;;;;;1.90;1.50;;;;;;;;;;6311032;28;20051;-70
2022/08/02 14:09:31;;;;;;;4.97;1.52;;;;;;;;;;6313527;28;20052;-70
2022/08/02 14:12:33;;;;;;;1.58;1.48;;;;;;;;;;6309373;28;20068;-69
2022/08/02 14:15:34;;;;;;;4.90;1.50;;;;;;;;;;6312124;28;20058;-69
2022/08/02 14:18:37;;;;;;;1.90;1.42;;;;;;;;;;6310785;28;20331;-68
2022/08/02 14:21:39;;;;;;;5.10;1.58;;;;;;;;;;6309859;28;20154;-69
2022/08/02 14:24:41;;;;;;;4.18;1.70;;;;;;;;;;6309358;28;20105;-69
2022/08/02 14:27:43;;;;;;;2.40;1.60;;;;;;;;;;6309373;28;20090;-70
2022/08/02 14:30:45;;;;;;;2.63;1.65;;;;;;;;;;6312633;28;20040;-70
2022/08/02 14:33:48;;;;;;;2.42;1.42;;;;;;;;;;6308050;28;20342;-69
2022/08/02 14:36:49;;;;;;;1.27;1.17;;;;;;;;;;6306373;28;20052;-69
2022/08/02 14:39:51;;;;;;;5.65;1.60;;;;;;;;;;6308184;28;20048;-69
2022/08/02 14:42:53;;;;;;;3.35;1.33;;;;;;;;;;6308385;28;20086;-70
2022/08/02 14:45:54;;;;;;;4.28;1.58;;;;;;;;;;6310437;28;20060;-72
2022/08/02 14:49:00;;;;;;;5.22;1.70;;;;;;;;;;6311110;28;20050;-72
2022/08/02 14:52:02;;;;;;;1.40;1.30;;;;;;;;;;6308590;28;20110;-70
2022/08/02 14:55:04;;;;;;;4.90;1.80;;;;;;;;;;6310289;28;20324;-71
2022/08/02 14:58:06;;;;;;;1.80;1.50;;;;;;;;;;6311435;28;20090;-71
2022/08/02 15:01:07;;;;;;;6.05;1.67;;;;;;;;;;6309553;28;20056;-69
2022/08/02 15:04:10;;;;;;;7.82;6.15;;;;;;;;;;6308010;28;20055;-70
2022/08/02 15:07:13;;;;;;;2.85;1.60;;;;;;;;;;6310744;28;20048;-69
2022/08/02 15:10:15;;;;;;;2.33;1.77;;;;;;;;;;6304249;28;20379;-71
2022/08/02 15:13:16;;;;;;;3.72;2.13;;;;;;;;;;6306240;28;20079;-72
2022/08/02 15:16:18;;;;;;;4.50;1.60;;;;;;;;;;6307171;28;20055;-70
2022/08/02 15:19:21;;;;;;;2.28;1.50;;;;;;;;;;6309433;28;20061;-70
2022/08/02 15:22:23;;;;;;;2.35;1.80;;;;;;;;;;6311991;28;20071;-70
2022/08/02 15:25:24;;;;;;;3.67;1.50;;;;;;;;;;6313618;28;20052;-69
2022/08/02 15:28:28;;;;;;;;;;;;;;;;;;6310745;28;20240;-69
2022/08/02 15:31:30;;;;;;;4.78;1.70;;;;;;;;;;6308037;28;19923;-70
2022/08/02 15:34:33;;;;;;;3.60;1.50;;;;;;;;;;6310469;28;20044;-71
2022/08/02 15:37:35;;;;;;;4.03;1.70;;;;;;;;;;6309834;28;20041;-70
2022/08/02 15:40:36;;;;;;;2.17;1.60;;;;;;;;;;6313561;28;20269;-73
2022/08/02 15:43:38;;;;;;;1.67;1.50;;;;;;;;;;6312617;28;20052;-73
2022/08/02 15:46:40;;;;;;;2.65;1.42;;;;;;;;;;6307702;28;20098;-73
2022/08/02 15:49:46;;;;;;;3.47;1.55;;;;;;;;;;6305143;28;20098;-69
2022/08/02 15:52:47;;;;;;;1.70;1.38;;;;;;;;;;6302827;28;20044;-70
2022/08/02 15:55:49;;;;;;;2.30;1.60;;;;;;;;;;6303485;28;20044;-70
2022/08/02 15:58:51;;;;;;;1.75;1.38;;;;;;;;;;6302745;28;20112;-70
2022/08/02 16:01:53;;;;;;;3.10;1.45;;;;;;;;;;6303292;28;20097;-70
2022/08/02 16:04:56;;;;;;;2.72;1.60;;;;;;;;;;6301662;28;20328;-70
2022/08/02 16:07:57;;;;;;;1.63;1.50;;;;;;;;;;6305216;28;20048;-70
2022/08/02 16:10:59;;;;;;;2.72;1.50;;;;;;;;;;6300406;28;20044;-70
2022/08/02 16:14:00;;;;;;;3.35;1.50;;;;;;;;;;6301795;28;20060;-69
2022/08/02 16:17:02;;;;;;;1.92;1.50;;;;;;;;;;6306267;28;20236;-69
2022/08/02 16:20:06;;;;;;;1.75;1.50;;;;;;;;;;6301261;28;20067;-70
2022/08/02 16:23:24;;;;;;;4.85;2.10;;;;;;;;;;6302887;28;20266;-70
2022/08/02 16:26:28;;;;;;;5.10;1.77;;;;;;;;;;6308811;28;20079;-74
2022/08/02 16:29:29;;;;;;;1.77;1.50;;;;;;;;;;6308158;28;20039;-70
2022/08/02 16:32:31;;;;;;;4.07;1.90;;;;;;;;;;6306739;28;20303;-70
2022/08/02 16:35:34;;;;;;;2.47;1.80;;;;;;;;;;6308955;28;20043;-74
2022/08/02 16:38:36;;;;;;;1.63;1.50;;;;;;;;;;6306593;28;20063;-70
2022/08/02 16:41:38;;;;;;;4.50;1.67;;;;;;;;;;6306857;28;20053;-70
2022/08/02 16:44:39;;;;;;;2.97;1.60;;;;;;;;;;6310997;28;20457;-73
2022/08/02 16:47:41;;;;;;;3.30;1.80;;;;;;;;;;6306907;28;20205;-67
2022/08/02 16:50:44;;;;;;;3.47;1.73;;;;;;;;;;6309006;28;20057;-73
2022/08/02 16:53:46;;;;;;;2.20;1.58;;;;;;;;;;6306868;28;20266;-75
2022/08/02 16:56:47;;;;;;;3.80;1.90;;;;;;;;;;6305853;28;20048;-75
2022/08/02 16:59:49;;;;;;;4.07;2.00;;;;;;;;;;6306485;28;20219;-69
2022/08/02 17:02:50;;;;;;;2.92;1.30;;;;;;;;;;6307197;28;20094;-69
2022/08/02 17:05:53;;;;;;;3.13;1.70;;;;;;;;;;6304416;28;20060;-69
2022/08/02 17:08:55;;;;;;;1.92;1.70;;;;;;;;;;6310228;28;20239;-72
2022/08/02 17:11:57;;;;;;;4.50;1.58;;;;;;;;;;6310434;28;20123;-72
2022/08/02 17:14:59;;;;;;;2.85;1.42;;;;;;;;;;6306033;28;20040;-69
2022/08/02 17:18:00;;;;;;;;;;;;;;;;;;6311492;28;20052;-70
2022/08/02 17:21:04;;;;;;;4.57;1.60;;;;;;;;;;6308369;28;24437;-73
2022/08/02 17:24:06;;;;;;;2.47;1.50;;;;;;;;;;6312371;28;20957;-73
2022/08/02 17:27:08;;;;;;;3.63;1.50;;;;;;;;;;6314266;28;20044;-74
2022/08/02 17:30:10;;;;;;;2.70;1.67;;;;;;;;;;6304210;28;20489;-74
2022/08/02 17:33:12;;;;;;;5.25;1.80;;;;;;;;;;6307925;28;20362;-74
2022/08/02 17:36:17;;;;;;;7.78;1.65;;;;;;;;;;6300853;28;20064;-74
2022/08/02 17:39:18;;;;;;;4.68;1.85;;;;;;;;;;6300519;28;20098;-74
2022/08/02 17:42:21;;;;;;;4.43;1.35;;;;;;;;;;6302502;28;20049;-73
2022/08/02 17:45:22;;;;;;;9.85;1.80;;;;;;;;;;6306654;28;20036;-74
2022/08/02 17:48:24;;;;;;;3.17;1.50;;;;;;;;;;6306513;28;20048;-73
2022/08/02 17:51:27;;;;;;;3.13;1.50;;;;;;;;;;6306149;28;20052;-74
2022/08/02 17:54:29;;;;;;;1.90;1.60;;;;;;;;;;6304732;28;20112;-74
2022/08/02 17:57:30;;;;;;;3.40;1.70;;;;;;;;;;6302728;28;20098;-74
2022/08/02 18:00:33;;;;;;;1.80;1.27;;;;;;;;;;6299584;28;20122;-74
2022/08/02 18:03:34;;;;;;;2.65;1.77;;;;;;;;;;6302102;28;20335;-73
2022/08/02 18:06:38;;;;;;;3.70;1.60;;;;;;;;;;6303885;28;20052;-74
2022/08/02 18:09:40;;;;;;;4.07;1.52;;;;;;;;;;6299917;28;20048;-74
2022/08/02 18:12:42;;;;;;;3.55;1.50;;;;;;;;;;6298840;28;20286;-75
2022/08/02 18:15:44;;;;;;;5.43;1.48;;;;;;;;;;6300473;28;20048;-75
2022/08/02 18:18:45;;;;;;;3.23;1.60;;;;;;;;;;6298560;28;20262;-75
2022/08/02 18:21:48;;;;;;;2.08;1.42;;;;;;;;;;6300420;28;20067;-73
2022/08/02 18:24:51;;;;;;;3.45;1.52;;;;;;;;;;6300155;28;20370;-74
2022/08/02 18:27:52;;;;;;;3.00;1.55;;;;;;;;;;6301017;28;20052;-74